sensor_id;sensor_type;location;lat;lon;timestamp;pressure;altitude;pressure_sealevel;temperature;humidity
69221;BME280;56331;51.992;20.910;2022-08-21T00:00:01;99847.72;;;26.39;54.84
69221;BME280;56331;51.992;20.910;2022-08-21T00:02:28;99842.13;;;26.39;54.82
69221;BME280;56331;51.992;20.910;2022-08-21T00:04:55;99839.94;;;26.39;54.77
69221;BME280;56331;51.992;20.910;2022-08-21T00:07:22;99843.33;;;26.38;54.74
69221;BME280;56331;51.992;20.910;2022-08-21T00:09:49;99842.73;;;26.39;54.71
69221;BME280;56331;51.992;20.910;2022-08-21T00:12:16;99840.54;;;26.38;54.68
69221;BME280;56331;51.992;20.910;2022-08-21T00:14:43;99842.73;;;26.39;54.64
69221;BME280;56331;51.992;20.910;2022-08-21T00:17:10;99843.90;;;26.38;54.65
69221;BME280;56331;51.992;20.910;2022-08-21T00:19:38;99846.13;;;26.38;54.61
69221;BME280;56331;51.992;20.910;2022-08-21T00:22:06;99842.73;;;26.39;54.57
69221;BME280;56331;51.992;20.910;2022-08-21T00:24:34;99846.69;;;26.38;54.52
69221;BME280;56331;51.992;20.910;2022-08-21T00:27:03;99847.30;;;26.37;54.54
69221;BME280;56331;51.992;20.910;2022-08-21T00:29:30;99843.33;;;26.38;54.49
69221;BME280;56331;51.992;20.910;2022-08-21T00:31:56;99843.10;;;26.37;54.42
69221;BME280;56331;51.992;20.910;2022-08-21T00:34:23;99841.11;;;26.38;54.41
69221;BME280;56331;51.992;20.910;2022-08-21T00:36:49;99843.10;;;26.37;54.36
69221;BME280;56331;51.992;20.910;2022-08-21T00:39:16;99848.09;;;26.38;54.40
69221;BME280;56331;51.992;20.910;2022-08-21T00:41:43;99848.69;;;26.37;54.30
69221;BME280;56331;51.992;20.910;2022-08-21T00:44:11;99842.30;;;26.37;54.28
69221;BME280;56331;51.992;20.910;2022-08-21T00:46:39;99842.30;;;26.37;54.21
69221;BME280;56331;51.992;20.910;2022-08-21T00:49:07;99836.13;;;26.37;54.16
69221;BME280;56331;51.992;20.910;2022-08-21T00:51:47;99833.92;;;26.37;54.13
69221;BME280;56331;51.992;20.910;2022-08-21T00:54:14;99832.53;;;26.37;54.17
69221;BME280;56331;51.992;20.910;2022-08-21T00:56:41;99834.53;;;26.36;54.09
69221;BME280;56331;51.992;20.910;2022-08-21T00:59:08;99830.94;;;26.36;54.08
69221;BME280;56331;51.992;20.910;2022-08-21T01:04:49;99831.13;;;26.37;54.07
69221;BME280;56331;51.992;20.910;2022-08-21T01:07:15;99824.53;;;26.35;54.00
69221;BME280;56331;51.992;20.910;2022-08-21T01:09:41;99827.92;;;26.35;53.95
69221;BME280;56331;51.992;20.910;2022-08-21T01:12:08;99822.33;;;26.35;53.90
69221;BME280;56331;51.992;20.910;2022-08-21T01:14:35;99825.35;;;26.36;53.87
69221;BME280;56331;51.992;20.910;2022-08-21T01:17:04;99825.13;;;26.35;53.82
69221;BME280;56331;51.992;20.910;2022-08-21T01:19:32;99823.73;;;26.35;53.80
69221;BME280;56331;51.992;20.910;2022-08-21T01:21:58;99821.53;;;26.34;53.71
69221;BME280;56331;51.992;20.910;2022-08-21T01:24:26;99819.54;;;26.35;53.64
69221;BME280;56331;51.992;20.910;2022-08-21T01:26:53;99822.33;;;26.35;53.61
69221;BME280;56331;51.992;20.910;2022-08-21T01:29:30;99822.14;;;26.34;53.51
69221;BME280;56331;51.992;20.910;2022-08-21T01:31:59;99826.33;;;26.34;53.48
69221;BME280;56331;51.992;20.910;2022-08-21T01:34:26;99823.53;;;26.34;53.46
69221;BME280;56331;51.992;20.910;2022-08-21T01:36:53;99811.77;;;26.34;53.42
69221;BME280;56331;51.992;20.910;2022-08-21T01:39:20;99811.77;;;26.34;53.39
69221;BME280;56331;51.992;20.910;2022-08-21T01:41:47;99802.59;;;26.34;53.32
69221;BME280;56331;51.992;20.910;2022-08-21T01:44:13;99802.59;;;26.34;53.26
69221;BME280;56331;51.992;20.910;2022-08-21T01:46:40;99801.19;;;26.34;53.27
69221;BME280;56331;51.992;20.910;2022-08-21T01:49:07;99800.40;;;26.33;53.28
69221;BME280;56331;51.992;20.910;2022-08-21T01:51:35;99798.17;;;26.33;53.20
69221;BME280;56331;51.992;20.910;2022-08-21T01:54:02;99793.98;;;26.33;53.13
69221;BME280;56331;51.992;20.910;2022-08-21T01:56:34;99798.40;;;26.34;53.10
69221;BME280;56331;51.992;20.910;2022-08-21T01:58:58;99798.59;;;26.35;53.12
69221;BME280;56331;51.992;20.910;2022-08-21T02:01:24;99803.75;;;26.33;53.01
69221;BME280;56331;51.992;20.910;2022-08-21T02:03:51;99798.40;;;26.34;53.04
69221;BME280;56331;51.992;20.910;2022-08-21T02:06:19;99793.98;;;26.33;53.02
69221;BME280;56331;51.992;20.910;2022-08-21T02:08:46;99792.59;;;26.33;52.96
69221;BME280;56331;51.992;20.910;2022-08-21T02:11:13;99787.00;;;26.33;53.00
69221;BME280;56331;51.992;20.910;2022-08-21T02:13:40;99791.19;;;26.33;52.88
69221;BME280;56331;51.992;20.910;2022-08-21T02:16:07;99794.58;;;26.32;52.83
69221;BME280;56331;51.992;20.910;2022-08-21T02:18:34;99789.23;;;26.33;52.76
69221;BME280;56331;51.992;20.910;2022-08-21T02:21:01;99785.03;;;26.33;52.77
69221;BME280;56331;51.992;20.910;2022-08-21T02:23:28;99788.20;;;26.32;52.76
69221;BME280;56331;51.992;20.910;2022-08-21T02:25:57;99785.61;;;26.33;52.68
69221;BME280;56331;51.992;20.910;2022-08-21T02:28:23;99779.83;;;26.32;52.67
69221;BME280;56331;51.992;20.910;2022-08-21T02:30:50;99778.43;;;26.32;52.62
69221;BME280;56331;51.992;20.910;2022-08-21T02:33:17;99778.43;;;26.32;52.51
69221;BME280;56331;51.992;20.910;2022-08-21T02:35:46;99779.03;;;26.31;52.53
69221;BME280;56331;51.992;20.910;2022-08-21T02:38:16;99775.64;;;26.32;52.47
69221;BME280;56331;51.992;20.910;2022-08-21T02:40:45;99779.63;;;26.31;52.48
69221;BME280;56331;51.992;20.910;2022-08-21T02:43:12;99776.23;;;26.31;52.48
69221;BME280;56331;51.992;20.910;2022-08-21T02:45:39;99781.82;;;26.31;52.40
69221;BME280;56331;51.992;20.910;2022-08-21T02:48:09;99775.21;;;26.30;52.35
69221;BME280;56331;51.992;20.910;2022-08-21T02:50:37;99774.05;;;26.31;52.34
69221;BME280;56331;51.992;20.910;2022-08-21T02:53:05;99777.02;;;26.28;52.28
69221;BME280;56331;51.992;20.910;2022-08-21T02:55:34;99776.19;;;26.28;52.34
69221;BME280;56331;51.992;20.910;2022-08-21T02:58:03;99763.23;;;26.26;52.28
69221;BME280;56331;51.992;20.910;2022-08-21T03:00:31;99763.23;;;26.26;52.28
69221;BME280;56331;51.992;20.910;2022-08-21T03:02:59;99773.63;;;26.29;52.25
69221;BME280;56331;51.992;20.910;2022-08-21T03:05:27;99766.04;;;26.29;52.20
69221;BME280;56331;51.992;20.910;2022-08-21T03:07:58;99762.45;;;26.29;52.07
69221;BME280;56331;51.992;20.910;2022-08-21T03:10:26;99762.45;;;26.29;52.08
69221;BME280;56331;51.992;20.910;2022-08-21T03:12:54;99764.64;;;26.29;52.07
69221;BME280;56331;51.992;20.910;2022-08-21T03:15:22;99764.05;;;26.30;51.97
69221;BME280;56331;51.992;20.910;2022-08-21T03:17:51;99764.45;;;26.28;51.92
69221;BME280;56331;51.992;20.910;2022-08-21T03:20:21;99761.05;;;26.29;51.88
69221;BME280;56331;51.992;20.910;2022-08-21T03:22:49;99758.27;;;26.29;51.87
69221;BME280;56331;51.992;20.910;2022-08-21T03:25:16;99756.87;;;26.29;51.84
69221;BME280;56331;51.992;20.910;2022-08-21T03:27:44;99755.47;;;26.29;51.78
69221;BME280;56331;51.992;20.910;2022-08-21T03:30:12;99759.66;;;26.29;51.80
69221;BME280;56331;51.992;20.910;2022-08-21T03:32:39;99765.24;;;26.29;51.75
69221;BME280;56331;51.992;20.910;2022-08-21T03:35:08;99756.64;;;26.28;51.67
69221;BME280;56331;51.992;20.910;2022-08-21T03:37:36;99761.66;;;26.28;51.75
69221;BME280;56331;51.992;20.910;2022-08-21T03:40:05;99758.27;;;26.29;51.67
69221;BME280;56331;51.992;20.910;2022-08-21T03:42:33;99751.05;;;26.28;51.67
69221;BME280;56331;51.992;20.910;2022-08-21T03:45:00;99753.84;;;26.28;51.73
69221;BME280;56331;51.992;20.910;2022-08-21T03:47:26;99758.64;;;26.27;51.62
69221;BME280;56331;51.992;20.910;2022-08-21T03:49:53;99754.67;;;26.28;51.63
69221;BME280;56331;51.992;20.910;2022-08-21T03:52:20;99760.03;;;26.27;51.58
69221;BME280;56331;51.992;20.910;2022-08-21T03:54:47;99756.64;;;26.28;51.52
69221;BME280;56331;51.992;20.910;2022-08-21T03:57:14;99759.44;;;26.28;51.49
69221;BME280;56331;51.992;20.910;2022-08-21T03:59:40;99752.26;;;26.27;51.53
69221;BME280;56331;51.992;20.910;2022-08-21T04:02:07;99753.28;;;26.28;51.52
69221;BME280;56331;51.992;20.910;2022-08-21T04:04:33;99758.44;;;26.26;51.46
69221;BME280;56331;51.992;20.910;2022-08-21T04:07:00;99757.23;;;26.27;51.52
69221;BME280;56331;51.992;20.910;2022-08-21T04:09:27;99760.03;;;26.27;51.51
69221;BME280;56331;51.992;20.910;2022-08-21T04:11:54;99761.23;;;26.26;51.63
69221;BME280;56331;51.992;20.910;2022-08-21T04:14:20;99752.26;;;26.27;51.65
69221;BME280;56331;51.992;20.910;2022-08-21T04:16:47;99749.46;;;26.27;51.66
69221;BME280;56331;51.992;20.910;2022-08-21T04:19:14;99745.88;;;26.26;51.65
69221;BME280;56331;51.992;20.910;2022-08-21T04:21:42;99752.26;;;26.27;51.65
69221;BME280;56331;51.992;20.910;2022-08-21T04:24:09;99753.66;;;26.27;51.67
69221;BME280;56331;51.992;20.910;2022-08-21T04:26:38;99749.84;;;26.25;51.70
69221;BME280;56331;51.992;20.910;2022-08-21T04:29:06;99750.86;;;26.27;51.72
69221;BME280;56331;51.992;20.910;2022-08-21T04:31:34;99750.23;;;26.24;51.72
69221;BME280;56331;51.992;20.910;2022-08-21T04:34:00;99748.25;;;26.24;51.81
69221;BME280;56331;51.992;20.910;2022-08-21T04:36:27;99746.25;;;26.25;51.84
69221;BME280;56331;51.992;20.910;2022-08-21T04:38:54;99751.23;;;26.25;51.85
69221;BME280;56331;51.992;20.910;2022-08-21T04:41:23;99742.06;;;26.25;51.86
69221;BME280;56331;51.992;20.910;2022-08-21T04:43:54;99749.04;;;26.25;51.91
69221;BME280;56331;51.992;20.910;2022-08-21T04:46:23;99754.43;;;26.24;51.93
69221;BME280;56331;51.992;20.910;2022-08-21T04:48:51;99751.03;;;26.24;51.93
69221;BME280;56331;51.992;20.910;2022-08-21T04:51:24;99754.43;;;26.24;51.97
69221;BME280;56331;51.992;20.910;2022-08-21T04:56:41;99753.83;;;26.24;52.04
69221;BME280;56331;51.992;20.910;2022-08-21T04:59:17;99758.61;;;26.24;52.07
69221;BME280;56331;51.992;20.910;2022-08-21T05:01:46;99758.81;;;26.25;52.09
69221;BME280;56331;51.992;20.910;2022-08-21T05:04:17;99762.01;;;26.23;52.11
69221;BME280;56331;51.992;20.910;2022-08-21T05:06:46;99766.77;;;26.23;52.13
69221;BME280;56331;51.992;20.910;2022-08-21T05:09:17;99766.99;;;26.24;52.18
69221;BME280;56331;51.992;20.910;2022-08-21T05:11:45;99773.17;;;26.23;52.19
69221;BME280;56331;51.992;20.910;2022-08-21T05:14:13;99764.80;;;26.23;52.19
69221;BME280;56331;51.992;20.910;2022-08-21T05:16:43;99765.59;;;26.24;52.23
69221;BME280;56331;51.992;20.910;2022-08-21T05:19:13;99767.59;;;26.23;52.24
69221;BME280;56331;51.992;20.910;2022-08-21T05:21:47;99765.59;;;26.24;52.25
69221;BME280;56331;51.992;20.910;2022-08-21T05:24:14;99769.55;;;26.23;52.28
69221;BME280;56331;51.992;20.910;2022-08-21T05:26:40;99774.57;;;26.23;52.34
69221;BME280;56331;51.992;20.910;2022-08-21T05:29:07;99775.97;;;26.23;52.34
69221;BME280;56331;51.992;20.910;2022-08-21T05:31:38;99769.36;;;26.22;52.36
69221;BME280;56331;51.992;20.910;2022-08-21T05:34:08;99767.79;;;26.24;52.41
69221;BME280;56331;51.992;20.910;2022-08-21T05:36:34;99766.20;;;26.23;52.44
69221;BME280;56331;51.992;20.910;2022-08-21T05:39:02;99766.77;;;26.23;52.49
69221;BME280;56331;51.992;20.910;2022-08-21T05:41:28;99765.97;;;26.22;52.50
69221;BME280;56331;51.992;20.910;2022-08-21T05:43:55;99765.17;;;26.22;52.50
69221;BME280;56331;51.992;20.910;2022-08-21T05:46:21;99766.56;;;26.22;52.50
69221;BME280;56331;51.992;20.910;2022-08-21T05:48:48;99762.58;;;26.23;52.53
69221;BME280;56331;51.992;20.910;2022-08-21T05:51:15;99761.78;;;26.22;52.58
69221;BME280;56331;51.992;20.910;2022-08-21T05:53:42;99762.58;;;26.23;52.58
69221;BME280;56331;51.992;20.910;2022-08-21T05:56:10;99761.78;;;26.22;52.64
69221;BME280;56331;51.992;20.910;2022-08-21T05:58:37;99765.97;;;26.22;52.64
69221;BME280;56331;51.992;20.910;2022-08-21T06:01:04;99760.38;;;26.22;52.67
69221;BME280;56331;51.992;20.910;2022-08-21T06:03:33;99749.81;;;26.22;52.69
69221;BME280;56331;51.992;20.910;2022-08-21T06:06:01;99754.00;;;26.22;52.70
69221;BME280;56331;51.992;20.910;2022-08-21T06:08:28;99754.60;;;26.21;52.72
69221;BME280;56331;51.992;20.910;2022-08-21T06:10:58;99760.98;;;26.22;52.75
69221;BME280;56331;51.992;20.910;2022-08-21T06:13:26;99758.98;;;26.22;52.77
69221;BME280;56331;51.992;20.910;2022-08-21T06:16:08;99764.37;;;26.21;52.82
69221;BME280;56331;51.992;20.910;2022-08-21T06:18:36;99766.56;;;26.22;52.81
69221;BME280;56331;51.992;20.910;2022-08-21T06:21:04;99771.95;;;26.21;52.85
69221;BME280;56331;51.992;20.910;2022-08-21T06:23:32;99773.34;;;26.21;52.87
69221;BME280;56331;51.992;20.910;2022-08-21T06:26:02;99781.73;;;26.21;52.92
69221;BME280;56331;51.992;20.910;2022-08-21T06:28:29;99781.50;;;26.19;52.91
69221;BME280;56331;51.992;20.910;2022-08-21T06:30:56;99784.52;;;26.21;52.92
69221;BME280;56331;51.992;20.910;2022-08-21T06:33:25;99783.32;;;26.22;52.96
69221;BME280;56331;51.992;20.910;2022-08-21T06:35:51;99786.71;;;26.21;52.97
69221;BME280;56331;51.992;20.910;2022-08-21T06:38:18;99785.12;;;26.20;53.02
69221;BME280;56331;51.992;20.910;2022-08-21T06:40:46;99790.10;;;26.21;53.02
69221;BME280;56331;51.992;20.910;2022-08-21T06:43:15;99789.88;;;26.19;53.04
69221;BME280;56331;51.992;20.910;2022-08-21T06:45:43;99790.70;;;26.20;53.06
69221;BME280;56331;51.992;20.910;2022-08-21T06:48:11;99796.48;;;26.21;53.08
69221;BME280;56331;51.992;20.910;2022-08-21T06:50:38;99800.67;;;26.21;53.10
69221;BME280;56331;51.992;20.910;2022-08-21T06:53:08;99796.48;;;26.21;53.11
69221;BME280;56331;51.992;20.910;2022-08-21T06:55:37;99794.89;;;26.20;53.17
69221;BME280;56331;51.992;20.910;2022-08-21T06:58:06;99794.06;;;26.19;53.16
69221;BME280;56331;51.992;20.910;2022-08-21T07:00:33;99797.08;;;26.21;53.19
69221;BME280;56331;51.992;20.910;2022-08-21T07:03:01;99787.31;;;26.21;53.24
69221;BME280;56331;51.992;20.910;2022-08-21T07:05:29;99790.70;;;26.20;53.24
69221;BME280;56331;51.992;20.910;2022-08-21T07:07:57;99793.49;;;26.20;53.26
69221;BME280;56331;51.992;20.910;2022-08-21T07:10:25;99789.08;;;26.19;53.30
69221;BME280;56331;51.992;20.910;2022-08-21T07:12:53;99786.28;;;26.19;53.33
69221;BME280;56331;51.992;20.910;2022-08-21T07:15:21;99788.48;;;26.19;53.36
69221;BME280;56331;51.992;20.910;2022-08-21T07:17:48;99783.12;;;26.21;53.42
69221;BME280;56331;51.992;20.910;2022-08-21T07:20:15;99787.31;;;26.21;53.38
69221;BME280;56331;51.992;20.910;2022-08-21T07:22:42;99781.50;;;26.19;53.42
69221;BME280;56331;51.992;20.910;2022-08-21T07:25:09;99782.89;;;26.19;53.46
69221;BME280;56331;51.992;20.910;2022-08-21T07:27:36;99783.49;;;26.19;53.48
69221;BME280;56331;51.992;20.910;2022-08-21T07:30:04;99784.29;;;26.19;53.50
69221;BME280;56331;51.992;20.910;2022-08-21T07:32:31;99782.89;;;26.19;53.51
69221;BME280;56331;51.992;20.910;2022-08-21T07:34:59;99777.11;;;26.18;53.58
69221;BME280;56331;51.992;20.910;2022-08-21T07:37:26;99772.33;;;26.19;53.63
69221;BME280;56331;51.992;20.910;2022-08-21T07:39:54;99766.14;;;26.19;53.65
69221;BME280;56331;51.992;20.910;2022-08-21T07:42:21;99763.35;;;26.19;53.64
69221;BME280;56331;51.992;20.910;2022-08-21T07:44:47;99760.56;;;26.19;53.68
69221;BME280;56331;51.992;20.910;2022-08-21T07:47:14;99752.19;;;26.19;53.71
69221;BME280;56331;51.992;20.910;2022-08-21T07:49:42;99750.79;;;26.19;53.73
69221;BME280;56331;51.992;20.910;2022-08-21T07:52:09;99747.20;;;26.19;53.80
69221;BME280;56331;51.992;20.910;2022-08-21T07:54:37;99750.22;;;26.20;53.80
69221;BME280;56331;51.992;20.910;2022-08-21T07:57:05;99748.00;;;26.19;53.83
69221;BME280;56331;51.992;20.910;2022-08-21T07:59:33;99745.20;;;26.19;53.90
69221;BME280;56331;51.992;20.910;2022-08-21T08:01:59;99746.41;;;26.18;54.10
69221;BME280;56331;51.992;20.910;2022-08-21T08:04:26;99742.41;;;26.19;54.22
69221;BME280;56331;51.992;20.910;2022-08-21T08:06:53;99745.43;;;26.21;54.24
69221;BME280;56331;51.992;20.910;2022-08-21T08:09:19;99746.60;;;26.19;54.27
69221;BME280;56331;51.992;20.910;2022-08-21T08:11:46;99746.83;;;26.21;54.25
69221;BME280;56331;51.992;20.910;2022-08-21T08:14:13;99744.03;;;26.21;54.24
69221;BME280;56331;51.992;20.910;2022-08-21T08:16:40;99740.64;;;26.21;54.33
69221;BME280;56331;51.992;20.910;2022-08-21T08:19:08;99744.03;;;26.21;54.28
69221;BME280;56331;51.992;20.910;2022-08-21T08:21:35;99734.04;;;26.19;54.31
69221;BME280;56331;51.992;20.910;2022-08-21T08:24:03;99744.64;;;26.20;54.31
69221;BME280;56331;51.992;20.910;2022-08-21T08:26:30;99741.84;;;26.20;54.34
69221;BME280;56331;51.992;20.910;2022-08-21T08:28:57;99740.22;;;26.19;54.36
69221;BME280;56331;51.992;20.910;2022-08-21T08:31:23;99735.44;;;26.19;54.34
69221;BME280;56331;51.992;20.910;2022-08-21T08:33:50;99727.66;;;26.19;54.35
69221;BME280;56331;51.992;20.910;2022-08-21T08:36:17;99738.45;;;26.21;54.39
69221;BME280;56331;51.992;20.910;2022-08-21T08:38:47;99734.04;;;26.19;54.40
69221;BME280;56331;51.992;20.910;2022-08-21T08:41:17;99731.47;;;26.21;54.41
69221;BME280;56331;51.992;20.910;2022-08-21T08:43:53;99734.04;;;26.19;54.44
69221;BME280;56331;51.992;20.910;2022-08-21T08:49:27;99731.25;;;26.19;54.45
69221;BME280;56331;51.992;20.910;2022-08-21T09:00:53;99736.28;;;26.24;54.48
69221;BME280;56331;51.992;20.910;2022-08-21T09:03:23;99742.81;;;26.18;54.53
69221;BME280;56331;51.992;20.910;2022-08-21T09:22:23;99738.83;;;26.19;54.58
69221;BME280;56331;51.992;20.910;2022-08-21T09:25:03;99725.47;;;26.18;54.59
69221;BME280;56331;51.992;20.910;2022-08-21T09:27:26;99742.22;;;26.18;54.61
69221;BME280;56331;51.992;20.910;2022-08-21T09:29:54;99735.23;;;26.18;54.61
69221;BME280;56331;51.992;20.910;2022-08-21T09:32:29;99731.25;;;26.19;54.60
69221;BME280;56331;51.992;20.910;2022-08-21T09:37:48;99728.59;;;26.34;54.22
69221;BME280;56331;51.992;20.910;2022-08-21T09:43:20;99728.28;;;26.22;54.45
69221;BME280;56331;51.992;20.910;2022-08-21T09:45:49;99730.88;;;26.21;54.51
69221;BME280;56331;51.992;20.910;2022-08-21T09:48:23;99725.09;;;26.20;54.47
69221;BME280;56331;51.992;20.910;2022-08-21T09:50:52;99721.28;;;26.18;54.52
69221;BME280;56331;51.992;20.910;2022-08-21T09:53:22;99717.09;;;26.18;54.46
69221;BME280;56331;51.992;20.910;2022-08-21T09:55:55;99720.68;;;26.19;54.44
69221;BME280;56331;51.992;20.910;2022-08-21T09:58:43;99719.52;;;26.20;54.38
69221;BME280;56331;51.992;20.910;2022-08-21T10:04:09;99715.34;;;26.24;54.31
69221;BME280;56331;51.992;20.910;2022-08-21T10:06:37;99713.70;;;26.19;54.35
69221;BME280;56331;51.992;20.910;2022-08-21T10:09:12;99711.51;;;26.18;54.26
69221;BME280;56331;51.992;20.910;2022-08-21T10:11:42;99719.28;;;26.19;54.26
69221;BME280;56331;51.992;20.910;2022-08-21T10:14:17;99712.30;;;26.19;54.20
69221;BME280;56331;51.992;20.910;2022-08-21T10:16:47;99718.11;;;26.20;54.15
69221;BME280;56331;51.992;20.910;2022-08-21T10:27:28;99706.95;;;26.20;53.96
69221;BME280;56331;51.992;20.910;2022-08-21T10:40:46;99702.95;;;26.21;53.92
69221;BME280;56331;51.992;20.910;2022-08-21T10:46:23;99701.16;;;26.23;53.91
69221;BME280;56331;51.992;20.910;2022-08-21T10:56:36;99697.56;;;26.22;53.92
69221;BME280;56331;51.992;20.910;2022-08-21T11:04:53;99688.59;;;26.23;53.94
69221;BME280;56331;51.992;20.910;2022-08-21T11:07:21;99689.19;;;26.22;53.93
69221;BME280;56331;51.992;20.910;2022-08-21T11:09:49;99691.19;;;26.22;53.92
69221;BME280;56331;51.992;20.910;2022-08-21T11:12:41;99685.80;;;26.23;53.88
69221;BME280;56331;51.992;20.910;2022-08-21T11:18:33;99678.02;;;26.22;53.89
69221;BME280;56331;51.992;20.910;2022-08-21T11:29:53;99681.05;;;26.23;53.91
69221;BME280;56331;51.992;20.910;2022-08-21T11:41:13;99681.05;;;26.23;53.91
69221;BME280;56331;51.992;20.910;2022-08-21T11:43:49;99680.22;;;26.23;53.87
69221;BME280;56331;51.992;20.910;2022-08-21T11:59:32;99667.72;;;26.30;53.79
69221;BME280;56331;51.992;20.910;2022-08-21T12:01:59;99678.07;;;26.26;53.77
69221;BME280;56331;51.992;20.910;2022-08-21T12:04:31;99683.66;;;26.26;53.73
69221;BME280;56331;51.992;20.910;2022-08-21T12:07:27;99678.07;;;26.26;53.73
69221;BME280;56331;51.992;20.910;2022-08-21T12:09:55;99683.05;;;26.26;53.71
69221;BME280;56331;51.992;20.910;2022-08-21T12:12:34;99676.67;;;26.26;53.66
69221;BME280;56331;51.992;20.910;2022-08-21T12:20:40;99676.27;;;26.27;53.65
69221;BME280;56331;51.992;20.910;2022-08-21T12:28:15;99674.67;;;26.26;53.52
69221;BME280;56331;51.992;20.910;2022-08-21T12:30:58;99678.70;;;26.32;53.42
69221;BME280;56331;51.992;20.910;2022-08-21T12:33:33;99681.85;;;26.27;53.29
69221;BME280;56331;51.992;20.910;2022-08-21T12:38:56;99681.48;;;26.29;53.09
69221;BME280;56331;51.992;20.910;2022-08-21T12:41:44;99677.29;;;26.29;53.03
69221;BME280;56331;51.992;20.910;2022-08-21T12:44:08;99677.06;;;26.28;52.95
69221;BME280;56331;51.992;20.910;2022-08-21T12:46:42;99670.31;;;26.29;52.91
69221;BME280;56331;51.992;20.910;2022-08-21T12:54:36;99665.72;;;26.30;52.79
69221;BME280;56331;51.992;20.910;2022-08-21T12:57:04;99670.50;;;26.30;52.76
69221;BME280;56331;51.992;20.910;2022-08-21T12:59:38;99668.31;;;26.29;52.73
69221;BME280;56331;51.992;20.910;2022-08-21T13:04:39;99672.50;;;26.29;52.62
69221;BME280;56331;51.992;20.910;2022-08-21T13:07:12;99672.70;;;26.30;52.53
69221;BME280;56331;51.992;20.910;2022-08-21T13:12:11;99672.92;;;26.31;52.53
69221;BME280;56331;51.992;20.910;2022-08-21T13:14:41;99670.92;;;26.32;52.50
69221;BME280;56331;51.992;20.910;2022-08-21T13:17:09;99671.52;;;26.31;52.51
69221;BME280;56331;51.992;20.910;2022-08-21T13:19:36;99676.52;;;26.32;52.54
69221;BME280;56331;51.992;20.910;2022-08-21T13:22:14;99668.73;;;26.31;52.54
69221;BME280;56331;51.992;20.910;2022-08-21T13:24:48;99669.53;;;26.32;52.58
69221;BME280;56331;51.992;20.910;2022-08-21T13:27:27;99668.73;;;26.31;52.63
69221;BME280;56331;51.992;20.910;2022-08-21T13:32:49;99662.19;;;26.37;52.61
69221;BME280;56331;51.992;20.910;2022-08-21T13:35:20;99658.36;;;26.32;52.65
69221;BME280;56331;51.992;20.910;2022-08-21T13:37:48;99661.95;;;26.32;52.62
69221;BME280;56331;51.992;20.910;2022-08-21T13:40:24;99660.55;;;26.32;52.65
69221;BME280;56331;51.992;20.910;2022-08-21T13:42:49;99659.95;;;26.33;52.69
69221;BME280;56331;51.992;20.910;2022-08-21T13:47:46;99664.56;;;26.35;52.75
69221;BME280;56331;51.992;20.910;2022-08-21T13:50:15;99659.38;;;26.33;52.84
69221;BME280;56331;51.992;20.910;2022-08-21T13:53:01;99666.94;;;26.33;52.95
69221;BME280;56331;51.992;20.910;2022-08-21T13:55:41;99664.73;;;26.32;53.07
69221;BME280;56331;51.992;20.910;2022-08-21T13:58:05;99663.95;;;26.32;53.17
69221;BME280;56331;51.992;20.910;2022-08-21T14:00:35;99661.16;;;26.32;53.28
69221;BME280;56331;51.992;20.910;2022-08-21T14:03:08;99660.78;;;26.33;53.33
69221;BME280;56331;51.992;20.910;2022-08-21T14:05:38;99655.39;;;26.34;53.35
69221;BME280;56331;51.992;20.910;2022-08-21T14:08:11;99667.58;;;26.36;53.44
69221;BME280;56331;51.992;20.910;2022-08-21T14:10:44;99667.58;;;26.36;53.50
69221;BME280;56331;51.992;20.910;2022-08-21T14:15:59;99661.81;;;26.38;53.56
69221;BME280;56331;51.992;20.910;2022-08-21T14:18:26;99662.61;;;26.39;53.61
69221;BME280;56331;51.992;20.910;2022-08-21T14:21:07;99672.58;;;26.40;53.68
69221;BME280;56331;51.992;20.910;2022-08-21T14:23:33;99672.99;;;26.42;53.88
69221;BME280;56331;51.992;20.910;2022-08-21T14:26:03;99675.41;;;26.44;54.69
69221;BME280;56331;51.992;20.910;2022-08-21T14:33:43;99679.63;;;26.51;55.67
69221;BME280;56331;51.992;20.910;2022-08-21T14:36:11;99679.20;;;26.49;55.76
69221;BME280;56331;51.992;20.910;2022-08-21T14:38:39;99680.83;;;26.50;55.57
69221;BME280;56331;51.992;20.910;2022-08-21T14:41:17;99682.87;;;26.53;55.48
69221;BME280;56331;51.992;20.910;2022-08-21T14:43:45;99686.68;;;26.54;55.35
69221;BME280;56331;51.992;20.910;2022-08-21T14:46:17;99677.70;;;26.55;55.40
69221;BME280;56331;51.992;20.910;2022-08-21T14:48:55;99673.34;;;26.61;55.37
69221;BME280;56331;51.992;20.910;2022-08-21T14:51:23;99677.52;;;26.57;55.43
69221;BME280;56331;51.992;20.910;2022-08-21T14:53:50;99669.33;;;26.58;55.44
69221;BME280;56331;51.992;20.910;2022-08-21T14:56:17;99669.52;;;26.56;55.47
69221;BME280;56331;51.992;20.910;2022-08-21T14:58:48;99670.72;;;26.55;55.44
69221;BME280;56331;51.992;20.910;2022-08-21T15:01:19;99672.53;;;26.57;55.32
69221;BME280;56331;51.992;20.910;2022-08-21T15:03:46;99665.55;;;26.57;55.52
69221;BME280;56331;51.992;20.910;2022-08-21T15:06:16;99669.92;;;26.54;55.74
69221;BME280;56331;51.992;20.910;2022-08-21T15:08:46;99666.27;;;26.50;56.71
69221;BME280;56331;51.992;20.910;2022-08-21T15:11:19;99666.27;;;26.50;56.71
69221;BME280;56331;51.992;20.910;2022-08-21T15:13:46;99672.11;;;26.55;56.77
69221;BME280;56331;51.992;20.910;2022-08-21T15:16:14;99673.52;;;26.55;56.90
69221;BME280;56331;51.992;20.910;2022-08-21T15:18:42;99668.72;;;26.55;56.75
69221;BME280;56331;51.992;20.910;2022-08-21T15:21:09;99668.52;;;26.54;56.81
69221;BME280;56331;51.992;20.910;2022-08-21T15:23:36;99667.31;;;26.52;56.94
69221;BME280;56331;51.992;20.910;2022-08-21T15:26:03;99669.25;;;26.51;57.11
69221;BME280;56331;51.992;20.910;2022-08-21T15:28:30;99668.30;;;26.53;57.20